Time;durP1;ratioP1;P1;durP2;ratioP2;P2;SDS_P1;SDS_P2;PMS_P1;PMS_P2;Temp;Humidity;BMP_temperature;BMP_pressure;BME280_temperature;BME280_humidity;BME280_pressure;Samples;Min_cycle;Max_cycle;Signal;HPM_P1;HPM_P2
2021/04/18 00:01:28;;;;;;;7.63;6.23;;;;;;;3.93;98.16;96471.97;4996529;28;20597;-85
2021/04/18 00:03:55;;;;;;;8.27;5.83;;;;;;;3.93;98.48;96474.66;4996525;28;20832;-85
2021/04/18 00:06:21;;;;;;;7.70;5.60;;;;;;;3.91;98.50;96471.03;4995633;28;20459;-85
2021/04/18 00:08:48;;;;;;;8.40;6.20;;;;;;;3.90;98.66;96472.97;4996475;28;20491;-86
2021/04/18 00:11:14;;;;;;;8.33;6.70;;;;;;;3.97;98.74;96464.44;4996591;28;20529;-85
2021/04/18 00:13:40;;;;;;;7.10;6.40;;;;;;;3.99;98.46;96463.94;4996370;28;20520;-85
2021/04/18 00:16:06;;;;;;;6.83;6.10;;;;;;;3.88;98.82;96454.06;4996047;28;20955;-84
2021/04/18 00:18:33;;;;;;;8.60;6.50;;;;;;;3.86;99.06;96453.06;4995858;28;20458;-85
2021/04/18 00:20:59;;;;;;;10.23;6.37;;;;;;;3.74;99.83;96452.41;4995724;28;20528;-85
2021/04/18 00:23:25;;;;;;;8.20;7.20;;;;;;;3.73;100.00;96446.34;4995716;28;20555;-86
2021/04/18 00:25:52;;;;;;;7.90;7.10;;;;;;;3.57;100.00;96443.75;4995785;28;20572;-86
2021/04/18 00:28:18;;;;;;;8.53;6.97;;;;;;;3.77;100.00;96446.09;4996019;28;20946;-85
2021/04/18 00:30:44;;;;;;;9.00;7.23;;;;;;;3.80;100.00;96453.09;4996036;28;20440;-86
2021/04/18 00:33:10;;;;;;;10.00;7.57;;;;;;;3.76;100.00;96445.34;4995687;28;20552;-86
2021/04/18 00:35:37;;;;;;;14.90;8.50;;;;;;;3.68;100.00;96449.03;4995806;28;21021;-85
2021/04/18 00:38:03;;;;;;;10.37;8.20;;;;;;;3.68;100.00;96443.69;4995555;28;20441;-86
2021/04/18 00:40:30;;;;;;;8.93;7.93;;;;;;;3.68;100.00;96444.44;4996278;28;20441;-86
2021/04/18 00:42:56;;;;;;;11.23;7.27;;;;;;;3.73;100.00;96445.63;4995668;28;20419;-86
2021/04/18 00:45:23;;;;;;;10.40;7.90;;;;;;;3.77;100.00;96441.47;5000091;28;20516;-85
2021/04/18 00:47:51;;;;;;;8.70;7.13;;;;;;;3.95;100.00;96444.78;5006234;28;20426;-85
2021/04/18 00:50:21;;;;;;;9.37;7.37;;;;;;;3.84;100.00;96440.25;5010523;28;20424;-85
2021/04/18 00:52:49;;;;;;;13.83;7.67;;;;;;;3.67;100.00;96439.56;5004351;28;20789;-84
2021/04/18 00:55:15;;;;;;;10.67;9.53;;;;;;;3.64;100.00;96440.56;4995925;28;20437;-85
2021/04/18 00:57:41;;;;;;;13.03;8.10;;;;;;;3.51;100.00;96441.09;4996167;28;20517;-84
2021/04/18 01:00:09;;;;;;;11.40;8.80;;;;;;;3.58;100.00;96434.53;4995669;28;20479;-85
2021/04/18 01:02:35;;;;;;;12.90;10.03;;;;;;;3.46;100.00;96441.84;4997804;28;20449;-83
2021/04/18 01:05:03;;;;;;;13.57;7.63;;;;;;;3.38;100.00;96434.84;4999736;28;20473;-83
2021/04/18 01:07:29;;;;;;;11.97;9.23;;;;;;;3.35;100.00;96435.84;4997484;28;20477;-83
2021/04/18 01:09:57;;;;;;;12.30;10.23;;;;;;;3.36;100.00;96430.00;4995969;28;20505;-84
2021/04/18 01:12:24;;;;;;;10.77;9.17;;;;;;;3.42;100.00;96430.69;4995609;28;20445;-84
2021/04/18 01:14:50;;;;;;;11.23;9.03;;;;;;;3.45;100.00;96429.72;4995518;28;20568;-85
2021/04/18 01:17:16;;;;;;;13.47;10.30;;;;;;;3.53;100.00;96433.34;4995459;28;20864;-85
2021/04/18 01:19:42;;;;;;;14.00;9.80;;;;;;;3.56;100.00;96426.28;4995164;28;21020;-85
2021/04/18 01:22:09;;;;;;;11.70;9.70;;;;;;;3.48;100.00;96426.06;4995199;28;20443;-85
2021/04/18 01:24:35;;;;;;;14.00;10.53;;;;;;;3.52;100.00;96421.22;4995732;28;20524;-84
2021/04/18 01:27:03;;;;;;;13.60;9.23;;;;;;;3.59;100.00;96431.38;5002377;28;20495;-84
2021/04/18 01:29:29;;;;;;;13.07;10.00;;;;;;;3.46;100.00;96420.50;5016559;28;20429;-84
2021/04/18 01:31:56;;;;;;;14.53;10.80;;;;;;;3.58;100.00;96421.91;5016276;28;20495;-84
2021/04/18 01:34:22;;;;;;;12.80;10.00;;;;;;;3.72;100.00;96412.16;5004492;28;20503;-85
2021/04/18 01:36:50;;;;;;;12.67;9.43;;;;;;;3.84;100.00;96412.81;4996782;28;20441;-84
2021/04/18 01:39:17;;;;;;;12.13;10.00;;;;;;;3.79;100.00;96406.28;4995464;28;20895;-85
2021/04/18 01:41:43;;;;;;;13.10;10.67;;;;;;;3.70;100.00;96404.63;4995226;28;20416;-85
2021/04/18 01:44:12;;;;;;;13.60;10.20;;;;;;;3.72;100.00;96404.16;4994811;28;20456;-85
2021/04/18 01:46:39;;;;;;;10.93;9.43;;;;;;;3.55;100.00;96409.56;4995359;28;20485;-83
2021/04/18 01:49:06;;;;;;;15.63;11.63;;;;;;;3.63;100.00;96409.78;4995474;28;20476;-84
2021/04/18 01:51:32;;;;;;;15.43;10.53;;;;;;;3.66;100.00;96414.13;4994370;28;20950;-85
2021/04/18 01:53:58;;;;;;;12.57;10.00;;;;;;;3.75;100.00;96405.84;4994071;28;20461;-84
2021/04/18 01:56:25;;;;;;;12.97;10.37;;;;;;;3.84;100.00;96402.88;4994465;28;20524;-85
2021/04/18 01:58:51;;;;;;;10.80;9.40;;;;;;;3.82;100.00;96397.31;4995445;28;20449;-86
2021/04/18 02:01:17;;;;;;;13.00;9.50;;;;;;;3.76;100.00;96393.94;4994848;28;20968;-86
2021/04/18 02:03:43;;;;;;;11.83;9.20;;;;;;;3.63;100.00;96413.16;4995021;28;20481;-85
2021/04/18 02:06:10;;;;;;;15.20;9.87;;;;;;;3.51;100.00;96406.41;4997475;28;20507;-85
2021/04/18 02:08:36;;;;;;;15.63;10.80;;;;;;;3.46;100.00;96409.13;4995197;28;20516;-85
2021/04/18 02:11:02;;;;;;;12.43;9.93;;;;;;;3.49;100.00;96406.19;4994754;28;20474;-85
2021/04/18 02:13:30;;;;;;;19.40;11.13;;;;;;;3.57;100.00;96391.13;4994825;28;20545;-85
2021/04/18 02:15:57;;;;;;;12.47;10.50;;;;;;;3.64;100.00;96400.53;4994336;28;20934;-85
2021/04/18 02:18:23;;;;;;;19.50;11.40;;;;;;;3.59;100.00;96404.69;4994864;28;20567;-85
2021/04/18 02:20:49;;;;;;;13.80;11.10;;;;;;;3.54;100.00;96405.44;4994620;28;20445;-86
2021/04/18 02:23:15;;;;;;;12.27;10.50;;;;;;;3.58;100.00;96405.91;4993800;28;20560;-85
2021/04/18 02:25:41;;;;;;;14.13;11.97;;;;;;;3.57;100.00;96396.44;4994460;28;20486;-85
2021/04/18 02:28:07;;;;;;;13.93;11.17;;;;;;;3.58;100.00;96402.50;4994384;28;20861;-86
2021/04/18 02:30:34;;;;;;;15.30;11.63;;;;;;;3.41;100.00;96401.88;4995324;28;20452;-86
2021/04/18 02:33:01;;;;;;;20.40;12.60;;;;;;;3.43;100.00;96402.09;4994652;28;20444;-85
2021/04/18 02:35:28;;;;;;;16.40;12.00;;;;;;;3.49;100.00;96408.13;4995225;28;20453;-85
2021/04/18 02:37:54;;;;;;;20.60;11.63;;;;;;;3.57;100.00;96401.78;4995270;28;20500;-85
2021/04/18 02:40:20;;;;;;;14.40;10.60;;;;;;;3.54;100.00;96410.78;5013830;28;20436;-85
2021/04/18 02:42:48;;;;;;;17.07;11.00;;;;;;;3.52;100.00;96407.16;5014914;28;20445;-85
2021/04/18 02:45:15;;;;;;;15.77;11.37;;;;;;;3.59;100.00;96407.38;4998219;28;20432;-85
2021/04/18 02:47:42;;;;;;;14.73;11.10;;;;;;;3.55;100.00;96412.22;4994072;28;20489;-85
2021/04/18 02:50:10;;;;;;;15.97;12.27;;;;;;;3.61;100.00;96412.19;4994869;28;20488;-85
2021/04/18 02:52:36;;;;;;;14.00;11.50;;;;;;;3.59;100.00;96415.38;4993914;28;20483;-86
2021/04/18 02:55:03;;;;;;;14.10;11.77;;;;;;;3.67;100.00;96415.56;4994708;28;20521;-85
2021/04/18 02:57:29;;;;;;;14.73;11.83;;;;;;;3.81;100.00;96406.53;4994622;28;20532;-86
2021/04/18 02:59:55;;;;;;;13.87;10.37;;;;;;;3.83;100.00;96406.75;4994377;28;20428;-85
2021/04/18 03:02:22;;;;;;;16.57;11.10;;;;;;;3.83;100.00;96406.75;4994389;28;20733;-85
2021/04/18 03:04:49;;;;;;;15.63;12.10;;;;;;;3.75;100.00;96395.91;4994722;28;20561;-86
2021/04/18 03:07:15;;;;;;;15.50;11.63;;;;;;;3.70;100.00;96398.56;4997360;28;20549;-84
2021/04/18 03:09:41;;;;;;;15.30;12.37;;;;;;;3.65;100.00;96399.34;4998950;28;20460;-84
2021/04/18 03:12:08;;;;;;;13.40;11.00;;;;;;;3.81;100.00;96401.19;4998131;28;20449;-85
2021/04/18 03:14:34;;;;;;;14.57;11.93;;;;;;;3.88;100.00;96403.34;4996896;28;20463;-84
2021/04/18 03:17:00;;;;;;;20.90;11.93;;;;;;;3.95;100.00;96397.47;4997764;28;20535;-84
2021/04/18 03:19:27;;;;;;;14.50;11.77;;;;;;;3.75;100.00;96392.50;4997121;28;20432;-84
2021/04/18 03:21:53;;;;;;;13.90;11.73;;;;;;;3.70;100.00;96398.56;4998022;28;20520;-85
2021/04/18 03:24:20;;;;;;;18.20;13.37;;;;;;;3.61;100.00;96404.19;4997539;28;20576;-85
2021/04/18 03:26:46;;;;;;;15.63;12.30;;;;;;;3.62;100.00;96393.06;4997631;28;21007;-85
2021/04/18 03:29:12;;;;;;;14.40;12.30;;;;;;;3.76;100.00;96394.66;4997707;28;20539;-85
2021/04/18 03:31:38;;;;;;;18.17;12.43;;;;;;;3.79;100.00;96393.69;4998160;28;20526;-85
2021/04/18 03:34:04;;;;;;;14.83;11.30;;;;;;;3.98;100.00;96396.47;4997486;28;20480;-85
2021/04/18 03:36:30;;;;;;;16.67;12.43;;;;;;;3.82;100.00;96399.25;4997083;28;20448;-86
2021/04/18 03:38:57;;;;;;;14.13;11.80;;;;;;;3.89;100.00;96393.38;4998347;28;20544;-86
2021/04/18 03:41:23;;;;;;;17.77;11.77;;;;;;;3.90;100.00;96397.50;5012440;28;20465;-85
2021/04/18 03:43:49;;;;;;;15.20;11.30;;;;;;;3.86;100.00;96389.03;5011505;28;20465;-85
2021/04/18 03:46:15;;;;;;;16.60;12.07;;;;;;;3.84;100.00;96389.53;5012280;28;20479;-85
2021/04/18 03:48:41;;;;;;;13.50;11.90;;;;;;;3.79;100.00;96395.63;5004730;28;20532;-85
2021/04/18 03:51:07;;;;;;;15.43;12.30;;;;;;;3.84;100.00;96384.19;4997354;28;20942;-85
2021/04/18 03:53:33;;;;;;;19.67;12.57;;;;;;;3.94;100.00;96392.63;4997606;28;20556;-86
2021/04/18 03:56:02;;;;;;;15.20;12.10;;;;;;;4.01;100.00;96390.16;4997585;28;20437;-86
2021/04/18 03:58:28;;;;;;;14.70;11.80;;;;;;;4.04;99.61;96391.81;4997276;28;20433;-85
2021/04/18 04:00:55;;;;;;;14.77;11.30;;;;;;;3.88;100.00;96389.28;4997699;28;20885;-85
2021/04/18 04:03:21;;;;;;;17.93;13.63;;;;;;;3.77;100.00;96388.13;4997420;28;20489;-86
2021/04/18 04:05:47;;;;;;;14.30;11.07;;;;;;;3.70;100.00;96388.63;4997684;28;20463;-85
2021/04/18 04:08:13;;;;;;;17.63;13.57;;;;;;;3.61;100.00;96388.19;4997607;28;20528;-85
2021/04/18 04:10:39;;;;;;;18.57;13.40;;;;;;;3.67;100.00;96391.56;4998128;28;20455;-85
2021/04/18 04:13:06;;;;;;;17.17;14.47;;;;;;;3.54;100.00;96396.72;4998056;28;20857;-85
2021/04/18 04:15:32;;;;;;;18.53;13.40;;;;;;;3.51;100.00;96392.38;4998135;28;20518;-84
2021/04/18 04:17:58;;;;;;;20.30;14.67;;;;;;;3.72;100.00;96398.81;4997863;28;20505;-85
2021/04/18 04:20:24;;;;;;;18.57;14.30;;;;;;;3.87;100.00;96395.81;4997459;28;20464;-85
2021/04/18 04:22:51;;;;;;;20.30;14.90;;;;;;;3.71;100.00;96395.44;4997578;28;20445;-85
2021/04/18 04:25:17;;;;;;;16.97;12.73;;;;;;;3.82;100.00;96396.59;4997456;28;20445;-85
2021/04/18 04:27:43;;;;;;;16.63;13.47;;;;;;;3.79;100.00;96399.00;4998152;28;20551;-83
2021/04/18 04:30:13;;;;;;;19.57;13.37;;;;;;;3.81;100.00;96401.19;4999090;28;20476;-84
2021/04/18 04:32:40;;;;;;;18.63;13.50;;;;;;;3.73;100.00;96397.59;4999334;28;20454;-84
2021/04/18 04:35:07;;;;;;;19.43;14.20;;;;;;;3.74;100.00;96399.78;4999375;28;20879;-85
2021/04/18 04:37:33;;;;;;;18.63;13.30;;;;;;;3.90;100.00;96403.56;5001834;28;20441;-85
2021/04/18 04:39:59;;;;;;;20.10;13.83;;;;;;;3.78;100.00;96407.53;5007501;28;20516;-84
2021/04/18 04:42:25;;;;;;;18.87;14.67;;;;;;;3.76;100.00;96407.28;5006815;28;20938;-84
2021/04/18 04:44:51;;;;;;;18.50;13.77;;;;;;;3.89;100.00;96412.78;5009142;28;20479;-84
2021/04/18 04:47:18;;;;;;;15.47;13.37;;;;;;;3.97;100.00;96418.34;5008877;28;20516;-85
2021/04/18 04:49:44;;;;;;;18.20;13.30;;;;;;;3.89;100.00;96415.47;5006130;28;20480;-86
2021/04/18 04:52:11;;;;;;;18.00;13.30;;;;;;;3.88;100.00;96415.97;5007136;28;20509;-86
2021/04/18 04:54:37;;;;;;;17.70;12.60;;;;;;;3.89;100.00;96420.78;5004031;28;20499;-85
2021/04/18 04:57:04;;;;;;;16.50;13.80;;;;;;;3.71;100.00;96421.38;5001558;28;20965;-86
2021/04/18 04:59:30;;;;;;;19.07;13.37;;;;;;;3.79;100.00;96415.03;4997013;28;20525;-85
2021/04/18 05:01:56;;;;;;;19.57;13.53;;;;;;;3.75;100.00;96417.25;4998110;28;20445;-84
2021/04/18 05:04:23;;;;;;;18.43;15.50;;;;;;;3.59;100.00;96423.38;4997254;28;20477;-85
2021/04/18 05:06:49;;;;;;;21.47;15.37;;;;;;;3.78;100.00;96421.59;4996557;28;20514;-85
2021/04/18 05:09:15;;;;;;;20.63;16.50;;;;;;;3.78;100.00;96415.53;4996985;28;20469;-85
2021/04/18 05:11:41;;;;;;;18.17;14.83;;;;;;;3.71;100.00;96422.09;5003214;28;20556;-85
2021/04/18 05:14:07;;;;;;;22.50;15.90;;;;;;;3.74;100.00;96420.41;4995853;28;20481;-85
2021/04/18 05:16:34;;;;;;;18.93;14.03;;;;;;;3.74;100.00;96417.72;4998311;28;21070;-84
2021/04/18 05:19:00;;;;;;;20.50;14.37;;;;;;;3.78;100.00;96418.19;4998414;28;20531;-85
2021/04/18 05:21:27;;;;;;;20.10;14.00;;;;;;;4.02;100.00;96428.25;4997279;28;20997;-85
2021/04/18 05:23:53;;;;;;;18.00;12.63;;;;;;;4.19;100.00;96429.63;4996526;28;20556;-85
2021/04/18 05:26:19;;;;;;;16.97;11.27;;;;;;;4.14;99.66;96426.97;4996405;28;20667;-85
2021/04/18 05:28:46;;;;;;;15.60;12.53;;;;;;;4.09;98.75;96430.41;4998252;28;20517;-84
2021/04/18 05:31:12;;;;;;;14.50;10.73;;;;;;;4.21;99.18;96432.50;5013727;28;20509;-85
2021/04/18 05:33:38;;;;;;;15.80;12.40;;;;;;;4.06;98.28;96434.78;5013754;28;20500;-85
2021/04/18 05:36:05;;;;;;;16.37;12.10;;;;;;;3.94;98.18;96438.75;5001412;28;20520;-85
2021/04/18 05:38:32;;;;;;;18.87;12.27;;;;;;;4.02;99.15;96439.66;4996391;28;20520;-86
2021/04/18 05:40:58;;;;;;;15.67;12.37;;;;;;;3.89;99.50;96436.81;4997436;28;20513;-87
2021/04/18 05:43:26;;;;;;;16.90;11.63;;;;;;;3.93;99.45;96441.88;4996050;28;20548;-86
2021/04/18 05:45:53;;;;;;;15.30;13.03;;;;;;;3.97;99.52;96443.09;4997366;28;20445;-86
2021/04/18 05:48:19;;;;;;;17.40;12.87;;;;;;;3.98;99.87;96439.19;4996661;28;20441;-85
2021/04/18 05:50:45;;;;;;;17.33;12.73;;;;;;;4.07;99.59;96441.56;4996317;28;20969;-87
2021/04/18 05:53:11;;;;;;;15.67;12.37;;;;;;;3.99;99.89;96445.97;4996903;28;20991;-86
2021/04/18 05:55:38;;;;;;;17.30;14.17;;;;;;;4.02;100.00;96442.31;4996650;28;20495;-86
2021/04/18 05:58:04;;;;;;;18.63;13.07;;;;;;;4.26;100.00;96449.72;4997789;28;20536;-86
2021/04/18 06:00:30;;;;;;;20.43;14.17;;;;;;;4.22;99.51;96446.59;4996953;28;20459;-87
2021/04/18 06:02:57;;;;;;;16.27;12.47;;;;;;;4.21;99.16;96445.84;4997405;28;20816;-86
2021/04/18 06:05:23;;;;;;;18.87;13.00;;;;;;;4.19;99.09;96448.31;4996506;28;20495;-86
2021/04/18 06:07:49;;;;;;;18.73;12.37;;;;;;;4.19;99.14;96442.97;4996928;28;20579;-86
2021/04/18 06:10:15;;;;;;;17.30;12.50;;;;;;;4.37;99.05;96446.25;4996683;28;20528;-87
2021/04/18 06:12:42;;;;;;;15.20;11.43;;;;;;;4.43;97.22;96439.66;4995395;28;20440;-87
2021/04/18 06:15:09;;;;;;;14.90;12.23;;;;;;;4.35;96.97;96435.34;4995683;28;20485;-86
2021/04/18 06:17:36;;;;;;;15.50;12.00;;;;;;;4.40;97.69;96439.91;4995302;28;20540;-85
2021/04/18 06:20:04;;;;;;;14.70;11.17;;;;;;;4.60;97.33;96436.84;4995582;28;20528;-86
2021/04/18 06:22:30;;;;;;;16.53;12.20;;;;;;;4.67;96.12;96441.63;4996158;28;20440;-86
2021/04/18 06:24:56;;;;;;;15.40;10.80;;;;;;;4.68;95.82;96445.78;4996308;28;20552;-86
2021/04/18 06:27:22;;;;;;;13.27;10.67;;;;;;;4.91;95.36;96438.28;4995075;28;21044;-86
2021/04/18 06:29:49;;;;;;;15.10;12.23;;;;;;;4.86;94.86;96439.78;4995204;28;20566;-86
2021/04/18 06:32:15;;;;;;;15.00;12.70;;;;;;;4.78;94.56;96441.56;4994883;28;20524;-86
2021/04/18 06:34:41;;;;;;;16.03;11.40;;;;;;;4.75;94.07;96443.28;4995469;28;20580;-87
2021/04/18 06:37:08;;;;;;;14.03;11.77;;;;;;;4.71;94.00;96450.13;4999240;28;20455;-87
2021/04/18 06:39:34;;;;;;;15.63;11.50;;;;;;;4.79;93.25;96457.09;5007938;28;20476;-86
2021/04/18 06:42:02;;;;;;;17.67;12.93;;;;;;;4.94;92.60;96461.34;5005253;28;20537;-86
2021/04/18 06:44:30;;;;;;;13.33;10.53;;;;;;;4.93;91.67;96452.59;5005690;28;20483;-86
2021/04/18 06:46:58;;;;;;;15.00;12.07;;;;;;;5.12;91.54;96452.69;4998470;28;20531;-86
2021/04/18 06:49:25;;;;;;;15.10;11.67;;;;;;;5.24;90.59;96457.41;4996434;28;20456;-86
2021/04/18 06:51:52;;;;;;;21.00;13.63;;;;;;;5.21;91.40;96455.03;4996782;28;20892;-85
2021/04/18 06:54:19;;;;;;;15.33;12.20;;;;;;;5.17;90.71;96455.28;4996465;28;20444;-87
2021/04/18 06:56:45;;;;;;;16.97;12.73;;;;;;;5.03;90.00;96455.69;4996618;28;20540;-86
2021/04/18 06:59:12;;;;;;;25.23;14.07;;;;;;;5.13;89.32;96454.13;4995735;28;20839;-86
2021/04/18 07:01:38;;;;;;;19.80;13.30;;;;;;;5.18;89.07;96456.75;4996421;28;20501;-86
2021/04/18 07:04:13;;;;;;;16.90;12.77;;;;;;;5.33;89.51;96451.72;4996370;28;20487;-86
2021/04/18 07:06:41;;;;;;;16.80;12.17;;;;;;;5.56;88.47;96457.56;4995783;28;20547;-86
2021/04/18 07:09:07;;;;;;;16.53;12.40;;;;;;;5.59;88.08;96455.84;4995507;28;20537;-86
2021/04/18 07:11:45;;;;;;;14.63;11.20;;;;;;;5.69;88.47;96451.59;4996548;28;20523;-86
2021/04/18 07:14:28;;;;;;;15.83;11.27;;;;;;;5.84;88.10;96459.91;5000286;28;20489;-85
2021/04/18 07:17:22;;;;;;;16.30;11.37;;;;;;;5.86;88.19;96458.22;5015429;28;20500;-85
2021/04/18 07:19:54;;;;;;;17.70;11.10;;;;;;;5.62;88.07;96452.16;5014507;28;20488;-84
2021/04/18 07:22:28;;;;;;;17.47;12.73;;;;;;;5.87;87.72;96446.28;5000320;28;20513;-86
2021/04/18 07:24:56;;;;;;;15.10;12.23;;;;;;;5.85;86.68;96461.38;4995618;28;20961;-86
2021/04/18 07:27:24;;;;;;;16.90;11.43;;;;;;;5.93;86.39;96451.56;4995553;28;20487;-86
2021/04/18 07:29:55;;;;;;;14.90;10.00;;;;;;;5.80;85.27;96459.47;4996605;28;20424;-86
2021/04/18 07:32:22;;;;;;;18.30;9.80;;;;;;;5.70;85.72;96450.38;4997208;28;20523;-86
2021/04/18 07:34:50;;;;;;;15.67;9.93;;;;;;;5.71;86.07;96454.47;4996193;28;20465;-86
2021/04/18 07:37:17;;;;;;;13.10;9.40;;;;;;;5.74;84.90;96454.19;4996657;28;20870;-87
2021/04/18 07:39:46;;;;;;;14.40;9.80;;;;;;;5.78;86.18;96451.25;4996920;28;20452;-86
2021/04/18 07:42:29;;;;;;;17.93;10.10;;;;;;;5.52;86.40;96459.81;4996148;28;20449;-85
2021/04/18 07:44:56;;;;;;;13.23;9.33;;;;;;;5.69;85.13;96459.63;4996741;28;20934;-85
2021/04/18 07:47:22;;;;;;;16.40;10.30;;;;;;;5.76;85.66;96453.72;4996352;28;20467;-85
2021/04/18 07:49:52;;;;;;;16.70;10.70;;;;;;;6.02;85.44;96459.22;4995689;28;20445;-86
2021/04/18 07:52:18;;;;;;;12.03;9.90;;;;;;;6.05;85.88;96458.22;4996739;28;20506;-85
2021/04/18 07:54:45;;;;;;;16.80;10.13;;;;;;;6.30;85.02;96459.59;4998524;28;20544;-85
2021/04/18 07:57:11;;;;;;;13.97;10.50;;;;;;;6.62;83.00;96459.59;4998384;28;20437;-86
2021/04/18 07:59:38;;;;;;;17.10;9.93;;;;;;;6.75;83.20;96459.66;4998325;28;20453;-85
2021/04/18 08:02:05;;;;;;;12.60;8.80;;;;;;;6.56;81.91;96458.97;4999247;28;20448;-87
2021/04/18 08:04:31;;;;;;;16.00;9.17;;;;;;;6.57;81.17;96455.06;4999441;28;20466;-86
2021/04/18 08:07:01;;;;;;;18.57;11.73;;;;;;;6.46;82.30;96455.94;4998681;28;20516;-86
2021/04/18 08:09:27;;;;;;;10.93;8.37;;;;;;;6.41;82.52;96458.72;4999366;28;20532;-85
2021/04/18 08:12:12;;;;;;;13.50;9.53;;;;;;;6.43;83.28;96450.88;4999624;28;20520;-86
2021/04/18 08:14:40;;;;;;;12.87;8.60;;;;;;;6.42;83.34;96455.50;4998028;28;20515;-86
2021/04/18 08:17:07;;;;;;;10.97;8.90;;;;;;;6.58;82.21;96455.78;4997377;28;20408;-85
2021/04/18 08:19:34;;;;;;;18.90;9.63;;;;;;;6.70;80.51;96462.44;4998272;28;20444;-85
2021/04/18 08:22:01;;;;;;;12.03;6.70;;;;;;;6.57;79.01;96451.66;4998149;28;20434;-85
2021/04/18 08:24:32;;;;;;;15.70;10.00;;;;;;;6.44;79.96;96457.69;4995952;28;20976;-86
2021/04/18 08:27:00;;;;;;;13.53;8.27;;;;;;;6.54;79.75;96463.41;4996603;28;20470;-85
2021/04/18 08:29:28;;;;;;;12.00;6.73;;;;;;;6.41;78.55;96459.44;4997551;28;20431;-86
2021/04/18 08:32:02;;;;;;;10.30;7.50;;;;;;;6.43;80.23;96470.38;5002222;28;20957;-85
2021/04/18 08:34:30;;;;;;;7.13;5.70;;;;;;;6.49;79.08;96478.31;4998180;28;20570;-84
2021/04/18 08:36:58;;;;;;;9.20;6.60;;;;;;;6.38;78.45;96471.19;4999303;28;20488;-85
2021/04/18 08:39:28;;;;;;;9.03;6.30;;;;;;;6.40;78.24;96470.66;4997683;28;20528;-86
2021/04/18 08:41:56;;;;;;;9.00;6.50;;;;;;;6.54;78.61;96468.75;4997985;28;20421;-85
2021/04/18 08:44:25;;;;;;;17.40;6.77;;;;;;;6.62;78.65;96464.97;4999121;28;20473;-86
2021/04/18 08:46:53;;;;;;;17.10;7.30;;;;;;;6.48;79.17;96463.50;4998207;28;20538;-85
2021/04/18 08:49:31;;;;;;;11.53;7.73;;;;;;;6.56;80.04;96466.28;4999203;28;20452;-86
2021/04/18 08:51:58;;;;;;;12.47;8.50;;;;;;;6.86;79.85;96470.19;4998369;28;20393;-85
2021/04/18 08:54:28;;;;;;;10.87;7.70;;;;;;;6.78;77.75;96477.41;4998274;28;20461;-85
2021/04/18 08:56:56;;;;;;;12.20;7.00;;;;;;;6.73;77.05;96472.84;4998246;28;20437;-85
2021/04/18 08:59:22;;;;;;;14.87;8.63;;;;;;;6.65;76.58;96469.31;4997863;28;20498;-86
2021/04/18 09:02:10;;;;;;;11.70;7.10;;;;;;;6.66;77.94;96473.44;4998409;28;20501;-85
2021/04/18 09:04:39;;;;;;;9.53;7.07;;;;;;;6.58;78.18;96464.53;5000440;28;20509;-86
2021/04/18 09:07:07;;;;;;;16.00;7.80;;;;;;;6.60;77.20;96472.09;4996958;28;20512;-86
2021/04/18 09:09:34;;;;;;;11.00;7.70;;;;;;;6.81;76.10;96471.00;4998424;28;20464;-86
2021/04/18 09:12:01;;;;;;;11.60;6.70;;;;;;;7.08;74.49;96469.09;4999649;28;20529;-86
2021/04/18 09:14:30;;;;;;;16.00;8.33;;;;;;;7.34;74.68;96468.41;4998771;28;20477;-85
2021/04/18 09:17:16;;;;;;;9.67;6.43;;;;;;;7.51;73.99;96471.53;4998188;28;20475;-85
2021/04/18 09:19:45;;;;;;;9.10;7.60;;;;;;;7.64;73.64;96465.44;4999044;28;20433;-86
2021/04/18 09:22:13;;;;;;;12.93;6.47;;;;;;;7.43;72.56;96478.75;4997993;28;20503;-86
2021/04/18 09:24:43;;;;;;;13.80;8.50;;;;;;;7.43;72.38;96468.72;4997314;28;20469;-86
2021/04/18 09:27:12;;;;;;;14.03;8.20;;;;;;;7.55;72.00;96475.34;4997296;28;20520;-85
2021/04/18 09:29:47;;;;;;;11.43;7.47;;;;;;;7.35;73.17;96465.22;4997400;28;20495;-86
2021/04/18 09:32:15;;;;;;;13.20;7.33;;;;;;;7.26;72.93;96481.00;4998404;28;20430;-87
2021/04/18 09:34:43;;;;;;;10.80;7.10;;;;;;;7.21;74.29;96479.84;4998857;28;20469;-86
2021/04/18 09:37:14;;;;;;;11.60;7.87;;;;;;;7.05;74.59;96480.16;5010447;28;20472;-85
2021/04/18 09:39:42;;;;;;;10.33;7.27;;;;;;;7.22;74.49;96473.25;5011145;28;20427;-85
2021/04/18 09:42:09;;;;;;;12.10;7.43;;;;;;;7.48;74.03;96481.34;5010766;28;20476;-86
2021/04/18 09:44:41;;;;;;;10.47;7.43;;;;;;;7.88;73.18;96484.00;5004558;28;20448;-86
2021/04/18 09:47:17;;;;;;;14.53;7.60;;;;;;;7.98;71.75;96487.72;4996704;28;20448;-85
2021/04/18 09:49:50;;;;;;;15.07;8.23;;;;;;;7.97;71.89;96481.63;4996002;28;20531;-85
2021/04/18 09:52:44;;;;;;;20.73;9.00;;;;;;;7.75;73.10;96475.97;4997265;28;20429;-85
2021/04/18 09:55:17;;;;;;;12.00;7.73;;;;;;;7.59;73.24;96477.00;4996230;28;21012;-84
2021/04/18 09:57:51;;;;;;;13.27;7.90;;;;;;;7.64;73.68;96478.88;4996366;28;20436;-85
2021/04/18 10:00:23;;;;;;;8.57;7.67;;;;;;;8.01;72.65;96482.03;4996424;28;20429;-85
2021/04/18 10:03:04;;;;;;;13.17;7.73;;;;;;;8.05;72.78;96482.44;4996105;28;20865;-86
2021/04/18 10:05:32;;;;;;;12.03;8.40;;;;;;;7.81;73.40;96485.34;4994510;28;20433;-85
2021/04/18 10:08:20;;;;;;;11.60;9.37;;;;;;;7.62;73.78;96486.69;4995498;28;20523;-85
2021/04/18 10:10:49;;;;;;;15.97;9.17;;;;;;;7.50;73.92;96476.19;4996542;28;20452;-85
2021/04/18 10:13:15;;;;;;;12.00;7.80;;;;;;;7.54;73.99;96481.25;4996837;28;20985;-85
2021/04/18 10:15:55;;;;;;;14.10;9.33;;;;;;;7.85;71.65;96483.09;4996721;28;20833;-85
2021/04/18 10:18:21;;;;;;;14.33;8.20;;;;;;;8.17;70.21;96484.91;5012751;28;20429;-86
2021/04/18 10:20:48;;;;;;;11.07;8.10;;;;;;;8.29;69.54;96484.16;5015437;28;20440;-85
2021/04/18 10:23:15;;;;;;;12.70;7.90;;;;;;;8.39;69.27;96481.75;5015139;28;20508;-85
2021/04/18 10:25:42;;;;;;;12.67;8.60;;;;;;;8.03;71.01;96476.13;5015352;28;20432;-85
2021/04/18 10:28:10;;;;;;;11.70;8.47;;;;;;;8.26;70.02;96473.72;5015466;28;21091;-86
2021/04/18 10:30:38;;;;;;;14.57;8.67;;;;;;;8.42;69.74;96478.03;5015633;28;20423;-86
2021/04/18 10:33:05;;;;;;;9.90;7.80;;;;;;;8.77;69.11;96479.44;5013882;28;20910;-86
2021/04/18 10:35:31;;;;;;;12.37;8.60;;;;;;;8.70;68.15;96480.81;5014824;28;20417;-86
2021/04/18 10:37:57;;;;;;;13.83;8.83;;;;;;;8.73;67.50;96476.34;5015248;28;20419;-84
2021/04/18 10:40:27;;;;;;;17.83;8.80;;;;;;;8.77;67.65;96471.38;5015920;28;20448;-86
2021/04/18 10:42:53;;;;;;;11.83;8.80;;;;;;;8.94;67.09;96469.00;5015402;28;20832;-85
2021/04/18 10:45:20;;;;;;;14.00;8.93;;;;;;;8.66;67.20;96471.63;5014705;28;20527;-85
2021/04/18 10:47:46;;;;;;;14.67;10.60;;;;;;;8.65;67.08;96476.28;5014275;28;20443;-85
2021/04/18 10:50:14;;;;;;;15.03;9.47;;;;;;;8.50;67.69;96468.06;5015354;28;20506;-85
2021/04/18 10:52:40;;;;;;;13.13;9.80;;;;;;;8.70;67.37;96474.72;5015214;28;20514;-86
2021/04/18 10:55:08;;;;;;;13.10;9.33;;;;;;;8.89;67.41;96467.91;5016630;28;20470;-86
2021/04/18 10:57:34;;;;;;;13.90;10.07;;;;;;;9.11;66.23;96456.56;5016836;28;20450;-86
2021/04/18 11:00:01;;;;;;;15.33;10.53;;;;;;;9.11;66.16;96458.56;5016555;28;20431;-84
2021/04/18 11:02:27;;;;;;;15.00;9.47;;;;;;;8.98;66.22;96458.63;5016412;28;20419;-85
2021/04/18 11:04:54;;;;;;;16.17;10.10;;;;;;;8.69;67.18;96460.53;5015129;28;20833;-85
2021/04/18 11:07:20;;;;;;;17.80;9.60;;;;;;;8.89;67.47;96459.09;5014356;28;20483;-86
2021/04/18 11:09:46;;;;;;;13.40;9.20;;;;;;;8.60;67.47;96459.03;5015719;28;20460;-85
2021/04/18 11:12:16;;;;;;;13.37;9.10;;;;;;;8.78;67.27;96462.78;5015607;28;20426;-85
2021/04/18 11:14:42;;;;;;;12.63;9.50;;;;;;;8.77;67.22;96466.00;5014720;28;20487;-85
2021/04/18 11:17:09;;;;;;;13.50;9.20;;;;;;;8.93;67.39;96460.19;5015108;28;20454;-84
2021/04/18 11:19:36;;;;;;;13.33;10.47;;;;;;;8.90;67.17;96461.25;5014794;28;20418;-86
2021/04/18 11:22:02;;;;;;;13.03;8.83;;;;;;;8.79;67.82;96466.19;5017631;28;20521;-85
2021/04/18 11:24:28;;;;;;;18.70;9.70;;;;;;;8.75;68.16;96463.81;5018539;28;20628;-85
2021/04/18 11:26:54;;;;;;;11.67;9.17;;;;;;;8.97;67.45;96462.56;5015292;28;20487;-85
2021/04/18 11:29:20;;;;;;;15.30;10.03;;;;;;;9.27;66.06;96462.09;5018347;28;20471;-84